createdAt,value
2022-10-16T00:01:54.448Z,13.81
2022-10-16T00:04:20.976Z,13.83
2022-10-16T00:06:47.494Z,13.80
2022-10-16T00:09:14.092Z,13.85
2022-10-16T00:11:41.354Z,13.89
2022-10-16T00:14:12.073Z,13.93
2022-10-16T00:16:38.739Z,13.97
2022-10-16T00:19:05.729Z,14.04
2022-10-16T00:21:33.252Z,13.89
2022-10-16T00:24:02.698Z,13.92
2022-10-16T00:26:31.335Z,13.89
2022-10-16T00:28:57.960Z,14.03
2022-10-16T00:31:24.574Z,13.92
2022-10-16T00:33:51.583Z,13.93
2022-10-16T00:36:20.222Z,14.07
2022-10-16T00:38:47.666Z,14.06
2022-10-16T00:41:16.937Z,14.03
2022-10-16T00:43:49.049Z,14.04
2022-10-16T00:46:19.123Z,14.00
2022-10-16T00:49:08.888Z,13.98
2022-10-16T00:51:37.813Z,14.12
2022-10-16T00:54:07.206Z,14.07
2022-10-16T00:56:34.687Z,14.06
2022-10-16T00:59:04.563Z,14.07
2022-10-16T01:01:31.278Z,14.08
2022-10-16T01:03:57.689Z,13.86
2022-10-16T01:06:27.698Z,13.93
2022-10-16T01:09:10.313Z,13.91
2022-10-16T01:11:36.691Z,13.79
2022-10-16T01:14:12.970Z,13.97
2022-10-16T01:16:50.537Z,13.87
2022-10-16T01:22:34.408Z,13.87
2022-10-16T01:25:02.381Z,13.98
2022-10-16T01:27:32.106Z,13.99
2022-10-16T01:30:06.023Z,14.03
2022-10-16T01:32:40.044Z,13.88
2022-10-16T01:35:12.362Z,13.96
2022-10-16T01:37:47.637Z,13.89
2022-10-16T01:40:16.854Z,13.79
2022-10-16T01:42:47.874Z,13.72
2022-10-16T01:45:16.592Z,13.68
2022-10-16T01:47:44.685Z,13.69
2022-10-16T01:50:11.724Z,13.79
2022-10-16T01:52:41.383Z,13.80
2022-10-16T01:55:09.693Z,13.72
2022-10-16T01:57:38.642Z,13.75
2022-10-16T02:00:08.958Z,13.75
2022-10-16T02:02:35.448Z,13.66
2022-10-16T02:05:21.777Z,13.54
2022-10-16T02:07:49.887Z,13.64
2022-10-16T02:10:16.669Z,13.58
2022-10-16T02:12:47.048Z,13.54
2022-10-16T02:15:13.658Z,13.59
2022-10-16T02:17:40.067Z,13.62
2022-10-16T02:20:07.024Z,13.55
2022-10-16T02:22:37.229Z,13.52
2022-10-16T02:25:05.644Z,13.43
2022-10-16T02:27:55.836Z,13.42
2022-10-16T02:30:41.809Z,13.33
2022-10-16T02:33:10.419Z,13.23
2022-10-16T02:35:37.515Z,13.32
2022-10-16T02:38:04.566Z,13.40
2022-10-16T02:40:32.110Z,13.32
2022-10-16T02:42:58.600Z,13.35
2022-10-16T02:45:25.286Z,13.34
2022-10-16T02:47:51.794Z,13.34
2022-10-16T02:50:18.795Z,13.39
2022-10-16T02:52:45.225Z,13.33
2022-10-16T02:55:11.755Z,13.27
2022-10-16T02:57:38.294Z,13.23
2022-10-16T03:00:06.045Z,13.26
2022-10-16T03:02:32.462Z,13.23
2022-10-16T03:04:59.008Z,13.28
2022-10-16T03:07:25.689Z,13.34
2022-10-16T03:09:52.313Z,13.19
2022-10-16T03:12:18.760Z,13.26
2022-10-16T03:14:45.247Z,13.16
2022-10-16T03:17:11.691Z,13.26
2022-10-16T03:19:38.178Z,13.29
2022-10-16T03:22:04.661Z,13.28
2022-10-16T03:24:32.104Z,13.20
2022-10-16T03:26:58.525Z,13.12
2022-10-16T03:29:26.730Z,13.20
2022-10-16T03:31:53.261Z,13.18
2022-10-16T03:34:19.705Z,13.10
2022-10-16T03:36:46.164Z,13.22
2022-10-16T03:39:12.801Z,13.17
2022-10-16T03:41:39.290Z,13.12
2022-10-16T03:44:05.781Z,13.20
2022-10-16T03:46:32.407Z,13.13
2022-10-16T03:48:58.895Z,13.13
2022-10-16T03:51:25.380Z,13.13
2022-10-16T03:53:51.765Z,13.05
2022-10-16T03:56:18.370Z,13.10
2022-10-16T03:58:44.838Z,12.93
2022-10-16T04:01:11.341Z,12.96
2022-10-16T04:03:37.752Z,12.93
2022-10-16T04:06:04.349Z,12.91
2022-10-16T04:08:31.004Z,12.98
2022-10-16T04:10:57.582Z,12.94
2022-10-16T04:13:24.011Z,12.94
2022-10-16T04:15:50.555Z,12.95
2022-10-16T04:18:17.036Z,13.01
2022-10-16T04:20:43.483Z,12.93
2022-10-16T04:23:10.023Z,12.96
2022-10-16T04:25:36.532Z,12.89
2022-10-16T04:28:03.171Z,12.87
2022-10-16T04:30:29.785Z,12.88
2022-10-16T04:32:56.246Z,12.86
2022-10-16T04:35:23.177Z,12.84
2022-10-16T04:37:49.753Z,12.83
2022-10-16T04:40:16.401Z,12.80
2022-10-16T04:42:42.907Z,12.81
2022-10-16T04:45:12.114Z,12.74
2022-10-16T04:47:41.410Z,12.70
2022-10-16T04:50:08.151Z,12.65
2022-10-16T04:55:06.748Z,12.62
2022-10-16T04:57:34.293Z,12.58
2022-10-16T05:00:01.193Z,12.52
2022-10-16T05:02:27.747Z,12.50
2022-10-16T05:04:54.233Z,12.47
2022-10-16T05:07:20.874Z,12.39
2022-10-16T05:09:47.440Z,12.37
2022-10-16T05:12:13.960Z,12.37
2022-10-16T05:14:40.768Z,12.35
2022-10-16T05:17:07.323Z,12.31
2022-10-16T05:19:34.068Z,12.36
2022-10-16T05:22:00.693Z,12.43
2022-10-16T05:24:27.343Z,12.42
2022-10-16T05:26:54.584Z,12.29
2022-10-16T05:29:21.669Z,12.27
2022-10-16T05:31:51.352Z,12.31
2022-10-16T05:34:18.019Z,12.41
2022-10-16T05:36:46.225Z,12.30
2022-10-16T05:39:13.007Z,12.41
2022-10-16T05:41:39.615Z,12.44
2022-10-16T05:44:06.905Z,12.30
2022-10-16T05:46:34.119Z,12.34
2022-10-16T05:49:00.787Z,12.34
2022-10-16T05:51:27.596Z,12.29
2022-10-16T05:53:54.104Z,12.24
2022-10-16T05:56:20.825Z,12.22
2022-10-16T05:58:47.614Z,12.29
2022-10-16T06:01:18.916Z,12.29
2022-10-16T06:03:45.870Z,12.37
2022-10-16T06:06:14.686Z,12.34
2022-10-16T06:08:42.424Z,12.28
2022-10-16T06:11:12.882Z,12.36
2022-10-16T06:13:42.252Z,12.41
2022-10-16T06:16:09.173Z,12.39
2022-10-16T06:18:35.714Z,12.45
2022-10-16T06:21:09.248Z,12.62
2022-10-16T06:23:35.744Z,12.52
2022-10-16T06:26:09.654Z,12.68
2022-10-16T06:28:36.296Z,12.72
2022-10-16T06:31:08.131Z,12.79
2022-10-16T06:33:35.593Z,12.87
2022-10-16T06:36:06.420Z,12.95
2022-10-16T06:38:33.180Z,13.05
2022-10-16T06:40:59.945Z,13.09
2022-10-16T06:43:26.998Z,13.12
2022-10-16T06:45:54.817Z,13.18
2022-10-16T06:48:22.001Z,13.43
2022-10-16T06:51:06.626Z,13.52
2022-10-16T06:53:40.102Z,13.61
2022-10-16T06:56:25.918Z,13.92
2022-10-16T06:58:53.381Z,14.24
2022-10-16T07:01:21.794Z,14.26
2022-10-16T07:03:48.723Z,14.26
2022-10-16T07:06:18.218Z,14.18
2022-10-16T07:08:46.190Z,14.22
2022-10-16T07:11:17.903Z,14.12
2022-10-16T07:13:49.321Z,14.01
2022-10-16T07:16:21.068Z,13.97
2022-10-16T07:18:49.568Z,14.05
2022-10-16T07:21:21.371Z,13.81
2022-10-16T07:23:55.032Z,13.78
2022-10-16T07:26:22.330Z,13.78
2022-10-16T07:28:49.060Z,13.80
2022-10-16T07:31:17.606Z,13.93
2022-10-16T07:33:45.752Z,14.11
2022-10-16T07:36:16.344Z,14.92
2022-10-16T07:38:43.395Z,19.01
2022-10-16T07:41:20.529Z,22.83
2022-10-16T07:43:51.941Z,25.14
2022-10-16T07:46:19.937Z,26.73
2022-10-16T07:48:48.454Z,27.88
2022-10-16T07:51:17.645Z,28.70
2022-10-16T07:53:44.720Z,30.05
2022-10-16T07:56:12.785Z,29.21
2022-10-16T07:58:39.583Z,26.92
2022-10-16T08:01:08.746Z,27.34
2022-10-16T08:03:35.687Z,26.57
2022-10-16T08:06:02.832Z,24.02
2022-10-16T08:08:29.533Z,23.98
2022-10-16T08:10:56.389Z,24.49
2022-10-16T08:13:23.148Z,22.53
2022-10-16T08:15:49.950Z,21.35
2022-10-16T08:18:17.337Z,19.99
2022-10-16T08:20:44.080Z,19.60
2022-10-16T08:23:12.197Z,19.38
2022-10-16T08:25:39.117Z,19.60
2022-10-16T08:28:06.876Z,19.75
2022-10-16T08:30:33.884Z,19.57
2022-10-16T08:33:00.969Z,19.42
2022-10-16T08:35:27.743Z,19.18
2022-10-16T08:37:54.503Z,18.88
2022-10-16T08:43:16.264Z,18.74
2022-10-16T08:46:06.849Z,18.94
2022-10-16T08:48:49.225Z,19.10
2022-10-16T08:51:27.924Z,19.03
2022-10-16T08:53:59.653Z,18.70
2022-10-16T08:56:26.924Z,18.98
2022-10-16T08:58:58.028Z,18.98
2022-10-16T09:01:40.276Z,19.06
2022-10-16T09:04:30.227Z,19.12
2022-10-16T09:07:00.897Z,19.06
2022-10-16T09:09:40.146Z,19.17
2022-10-16T09:12:17.126Z,19.18
2022-10-16T09:15:04.538Z,19.33
2022-10-16T09:17:45.403Z,19.24
2022-10-16T09:20:32.820Z,19.47
2022-10-16T09:23:05.301Z,19.34
2022-10-16T09:25:33.811Z,19.21
2022-10-16T09:28:00.458Z,19.30
2022-10-16T09:30:29.333Z,19.09
2022-10-16T09:32:56.511Z,19.08
2022-10-16T09:35:28.668Z,19.44
2022-10-16T09:37:55.891Z,19.51
2022-10-16T09:40:35.939Z,19.52
2022-10-16T09:43:08.693Z,19.34
2022-10-16T09:45:35.256Z,19.12
2022-10-16T09:48:12.373Z,19.13
2022-10-16T09:50:39.694Z,19.02
2022-10-16T09:53:13.839Z,19.14
2022-10-16T09:55:51.337Z,19.35
2022-10-16T09:58:18.061Z,19.52
2022-10-16T10:00:51.098Z,19.50
2022-10-16T10:03:38.824Z,19.53
2022-10-16T10:06:27.112Z,19.84
2022-10-16T10:09:07.258Z,20.01
2022-10-16T10:11:44.504Z,20.03
2022-10-16T10:14:21.827Z,20.07
2022-10-16T10:16:48.747Z,19.84
2022-10-16T10:19:22.321Z,19.93
2022-10-16T10:21:49.725Z,19.76
2022-10-16T10:24:17.776Z,19.68
2022-10-16T10:27:04.246Z,19.52
2022-10-16T10:29:58.463Z,19.50
2022-10-16T10:32:34.977Z,19.53
2022-10-16T10:35:22.745Z,19.29
2022-10-16T10:37:58.072Z,19.18
2022-10-16T10:40:40.180Z,19.18
2022-10-16T10:43:18.046Z,19.15
2022-10-16T10:45:47.650Z,19.19
2022-10-16T10:49:02.243Z,19.12
2022-10-16T10:51:47.611Z,19.04
2022-10-16T10:54:32.896Z,18.94
2022-10-16T10:57:03.375Z,19.10
2022-10-16T10:59:51.110Z,19.11
2022-10-16T11:02:43.704Z,19.21
2022-10-16T11:05:25.146Z,19.10
2022-10-16T11:08:11.127Z,19.24
2022-10-16T11:10:58.625Z,19.37
2022-10-16T11:14:07.516Z,19.16
2022-10-16T11:16:41.218Z,19.21
2022-10-16T11:19:22.637Z,19.16
2022-10-16T11:22:00.670Z,19.43
2022-10-16T11:24:46.225Z,19.59
2022-10-16T11:27:23.140Z,19.51
2022-10-16T11:30:00.246Z,19.58
2022-10-16T11:32:34.084Z,19.53
2022-10-16T11:35:17.516Z,19.50
2022-10-16T11:37:45.585Z,19.34
2022-10-16T11:40:36.106Z,19.30
2022-10-16T11:43:16.072Z,19.37
2022-10-16T11:45:55.395Z,19.48
2022-10-16T11:48:39.804Z,19.37
2022-10-16T11:51:19.052Z,19.39
2022-10-16T11:53:56.440Z,19.53
2022-10-16T11:56:23.056Z,19.56
2022-10-16T11:59:06.126Z,19.61
2022-10-16T12:01:39.452Z,19.56
2022-10-16T12:04:15.366Z,19.50
2022-10-16T12:06:45.484Z,19.50
2022-10-16T12:09:28.403Z,19.50
2022-10-16T12:11:55.147Z,19.44
2022-10-16T12:14:57.230Z,19.63
2022-10-16T12:17:36.664Z,19.77
2022-10-16T12:20:18.226Z,19.72
2022-10-16T12:22:56.581Z,19.75
2022-10-16T12:25:29.755Z,19.77
2022-10-16T12:28:06.658Z,19.66
2022-10-16T12:30:36.174Z,19.59
2022-10-16T12:33:07.565Z,19.58
2022-10-16T12:35:35.818Z,19.62
2022-10-16T12:38:22.763Z,19.65
2022-10-16T12:41:09.479Z,19.56
2022-10-16T12:43:43.464Z,19.63
2022-10-16T12:46:11.062Z,19.59
2022-10-16T12:48:49.408Z,19.48
2022-10-16T12:51:25.829Z,19.42
2022-10-16T12:54:13.966Z,19.26
2022-10-16T12:56:55.111Z,19.17
2022-10-16T12:59:59.505Z,19.07
2022-10-16T13:02:53.311Z,18.91
2022-10-16T13:05:25.359Z,18.83
2022-10-16T13:08:19.105Z,18.92
2022-10-16T13:11:25.377Z,18.92
2022-10-16T13:14:18.319Z,18.76
2022-10-16T13:17:13.806Z,18.74
2022-10-16T13:19:47.881Z,18.86
2022-10-16T13:22:20.394Z,18.83
2022-10-16T13:25:29.228Z,18.82
2022-10-16T13:28:00.110Z,18.70
2022-10-16T13:30:32.633Z,18.76
2022-10-16T13:33:04.135Z,18.81
2022-10-16T13:35:34.357Z,18.71
2022-10-16T13:38:13.060Z,18.64
2022-10-16T13:43:52.814Z,18.63
2022-10-16T13:46:21.445Z,18.76
2022-10-16T13:48:59.415Z,18.66
2022-10-16T13:51:27.406Z,18.75
2022-10-16T13:53:56.121Z,18.93
2022-10-16T13:56:24.134Z,18.96
2022-10-16T13:59:07.229Z,18.97
2022-10-16T14:01:42.209Z,19.01
2022-10-16T14:04:11.323Z,18.95
2022-10-16T14:06:41.965Z,19.06
2022-10-16T14:09:32.892Z,18.98
2022-10-16T14:12:02.115Z,19.07
2022-10-16T14:14:35.310Z,19.05
2022-10-16T14:17:03.171Z,19.04
2022-10-16T14:19:34.937Z,19.19
2022-10-16T14:22:02.662Z,19.07
2022-10-16T14:24:34.457Z,19.05
2022-10-16T14:27:01.776Z,18.95
2022-10-16T14:29:31.933Z,18.93
2022-10-16T14:32:03.575Z,19.05
2022-10-16T14:34:35.920Z,19.02
2022-10-16T14:37:14.250Z,19.01
2022-10-16T14:39:41.668Z,18.87
2022-10-16T14:42:20.112Z,18.86
2022-10-16T14:44:47.475Z,18.81
2022-10-16T14:47:17.735Z,18.95
2022-10-16T14:49:44.220Z,18.88
2022-10-16T14:52:12.337Z,18.92
2022-10-16T14:54:39.079Z,18.85
2022-10-16T14:57:05.734Z,18.85
2022-10-16T14:59:40.390Z,18.71
2022-10-16T15:02:22.863Z,18.80
2022-10-16T15:04:50.134Z,18.83
2022-10-16T15:07:16.870Z,18.82
2022-10-16T15:09:48.126Z,18.67
2022-10-16T15:12:16.746Z,18.66
2022-10-16T15:14:43.249Z,18.72
2022-10-16T15:17:11.421Z,18.55
2022-10-16T15:19:38.054Z,18.54
2022-10-16T15:22:04.589Z,18.68
2022-10-16T15:24:32.378Z,18.66
2022-10-16T15:26:58.995Z,18.66
2022-10-16T15:29:25.470Z,18.56
2022-10-16T15:31:52.294Z,18.63
2022-10-16T15:34:20.491Z,18.54
2022-10-16T15:36:47.184Z,18.49
2022-10-16T15:39:15.824Z,18.48
2022-10-16T15:41:42.940Z,18.53
2022-10-16T15:44:09.580Z,18.47
2022-10-16T15:46:37.228Z,18.49
2022-10-16T15:49:03.955Z,18.49
2022-10-16T15:51:31.144Z,18.44
2022-10-16T15:53:58.093Z,18.32
2022-10-16T15:56:26.347Z,18.43
2022-10-16T15:58:54.426Z,18.25
2022-10-16T16:01:21.677Z,18.24
2022-10-16T16:03:48.620Z,18.27
2022-10-16T16:06:15.751Z,18.28
2022-10-16T16:08:42.366Z,18.22
2022-10-16T16:11:11.097Z,18.18
2022-10-16T16:13:41.117Z,18.13
2022-10-16T16:16:12.550Z,18.07
2022-10-16T16:18:39.255Z,18.05
2022-10-16T16:21:06.426Z,18.11
2022-10-16T16:23:33.124Z,17.93
2022-10-16T16:26:14.857Z,17.95
2022-10-16T16:28:43.008Z,17.91
2022-10-16T16:31:09.892Z,17.91
2022-10-16T16:33:36.521Z,17.87
2022-10-16T16:36:05.161Z,17.78
2022-10-16T16:38:33.236Z,17.72
2022-10-16T16:40:59.816Z,17.77
2022-10-16T16:43:27.424Z,17.82
2022-10-16T16:45:54.738Z,17.75
2022-10-16T16:48:22.468Z,17.80
2022-10-16T16:50:49.057Z,17.72
2022-10-16T16:53:15.531Z,17.62
2022-10-16T16:55:42.132Z,17.62
2022-10-16T16:58:08.550Z,17.60
2022-10-16T17:00:35.070Z,17.59
2022-10-16T17:03:01.649Z,17.59
2022-10-16T17:05:28.309Z,17.44
2022-10-16T17:07:54.886Z,17.39
2022-10-16T17:10:21.377Z,17.42
2022-10-16T17:12:47.986Z,17.40
2022-10-16T17:15:14.578Z,17.29
2022-10-16T17:17:41.222Z,17.27
2022-10-16T17:20:09.949Z,17.30
2022-10-16T17:22:36.474Z,17.18
2022-10-16T17:25:04.503Z,17.18
2022-10-16T17:27:31.169Z,17.13
2022-10-16T17:29:57.659Z,17.07
2022-10-16T17:32:24.299Z,17.03
2022-10-16T17:34:51.122Z,17.06
2022-10-16T17:37:18.280Z,17.01
2022-10-16T17:39:44.972Z,17.05
2022-10-16T17:42:11.398Z,17.02
2022-10-16T17:44:38.091Z,17.13
2022-10-16T17:47:04.816Z,17.07
2022-10-16T17:49:34.464Z,17.00
2022-10-16T17:52:02.998Z,17.07
2022-10-16T17:54:29.486Z,17.12
2022-10-16T17:56:56.182Z,17.17
2022-10-16T17:59:23.290Z,17.02
2022-10-16T18:01:50.118Z,17.01
2022-10-16T18:04:17.420Z,16.91
2022-10-16T18:06:44.970Z,16.96
2022-10-16T18:09:14.338Z,16.91
2022-10-16T18:11:41.105Z,16.90
2022-10-16T18:14:07.802Z,16.88
2022-10-16T18:16:36.199Z,16.90
2022-10-16T18:19:03.400Z,16.90
2022-10-16T18:21:30.833Z,16.83
2022-10-16T18:23:58.737Z,16.84
2022-10-16T18:26:26.073Z,16.73
2022-10-16T18:28:53.956Z,16.72
2022-10-16T18:31:21.189Z,16.62
2022-10-16T18:33:50.266Z,16.67
2022-10-16T18:36:19.248Z,16.67
2022-10-16T18:38:46.258Z,16.63
2022-10-16T18:41:13.058Z,16.52
2022-10-16T18:43:40.020Z,16.40
2022-10-16T18:46:14.800Z,16.38
2022-10-16T18:48:41.400Z,16.44
2022-10-16T18:51:15.365Z,16.30
2022-10-16T18:53:43.147Z,16.18
2022-10-16T18:56:10.489Z,16.13
2022-10-16T18:58:38.284Z,16.11
2022-10-16T19:01:06.435Z,16.12
2022-10-16T19:03:33.651Z,16.09
2022-10-16T19:06:07.178Z,16.09
2022-10-16T19:08:34.442Z,15.99
2022-10-16T19:11:12.373Z,15.91
2022-10-16T19:13:39.319Z,15.89
2022-10-16T19:16:19.830Z,15.88
2022-10-16T19:18:48.345Z,15.88
2022-10-16T19:21:16.145Z,15.94
2022-10-16T19:23:42.691Z,15.87
2022-10-16T19:26:12.397Z,15.83
2022-10-16T19:28:39.744Z,15.72
2022-10-16T19:31:08.426Z,15.73
2022-10-16T19:33:35.528Z,15.71
2022-10-16T19:36:12.143Z,15.68
2022-10-16T19:38:40.006Z,15.61
2022-10-16T19:41:17.510Z,15.62
2022-10-16T19:43:44.847Z,15.63
2022-10-16T19:46:18.883Z,15.44
2022-10-16T19:48:46.236Z,15.41
2022-10-16T19:51:17.270Z,15.53
2022-10-16T19:53:44.734Z,15.61
2022-10-16T19:56:16.314Z,15.47
2022-10-16T19:58:43.782Z,15.28
2022-10-16T20:01:10.561Z,15.23
2022-10-16T20:03:39.393Z,15.21
2022-10-16T20:06:07.035Z,15.16
2022-10-16T20:08:34.577Z,15.16
2022-10-16T20:11:01.496Z,15.15
2022-10-16T20:13:28.750Z,15.14
2022-10-16T20:15:55.496Z,15.10
2022-10-16T20:18:22.164Z,15.05
2022-10-16T20:20:51.181Z,15.20
2022-10-16T20:23:18.876Z,15.25
2022-10-16T20:25:45.571Z,15.18
2022-10-16T20:28:18.451Z,15.22
2022-10-16T20:30:46.589Z,15.08
2022-10-16T20:33:13.371Z,15.02
2022-10-16T20:35:43.290Z,15.01
2022-10-16T20:38:11.138Z,14.93
2022-10-16T20:40:42.683Z,14.85
2022-10-16T20:43:14.353Z,14.80
2022-10-16T20:45:40.999Z,14.76
2022-10-16T20:48:07.944Z,14.69
2022-10-16T20:50:34.471Z,14.67
2022-10-16T20:53:01.023Z,14.68
2022-10-16T20:55:28.068Z,14.67
2022-10-16T20:57:54.754Z,14.63
2022-10-16T21:00:21.433Z,14.55
2022-10-16T21:02:51.476Z,14.52
2022-10-16T21:05:18.842Z,14.46
2022-10-16T21:07:45.609Z,14.48
2022-10-16T21:10:12.545Z,14.42
2022-10-16T21:12:39.061Z,14.39
2022-10-16T21:15:20.980Z,14.35
2022-10-16T21:17:47.401Z,14.30
2022-10-16T21:20:13.820Z,14.35
2022-10-16T21:22:40.276Z,14.37
2022-10-16T21:25:07.817Z,14.41
2022-10-16T21:27:40.920Z,14.35
2022-10-16T21:30:09.276Z,14.23
2022-10-16T21:32:36.496Z,14.24
2022-10-16T21:35:03.671Z,14.22
2022-10-16T21:37:32.279Z,14.22
2022-10-16T21:39:58.697Z,14.24
2022-10-16T21:42:25.374Z,14.33
2022-10-16T21:44:51.905Z,14.42
2022-10-16T21:47:18.584Z,14.32
2022-10-16T21:49:45.057Z,14.28
2022-10-16T21:52:12.032Z,14.22
2022-10-16T21:54:38.471Z,14.14
2022-10-16T21:59:36.424Z,14.18
2022-10-16T22:02:03.250Z,14.13
2022-10-16T22:04:29.783Z,14.20
2022-10-16T22:06:56.456Z,14.24
2022-10-16T22:09:22.885Z,14.25
2022-10-16T22:11:50.516Z,14.23
2022-10-16T22:14:19.234Z,14.21
2022-10-16T22:16:46.612Z,14.32
2022-10-16T22:19:14.916Z,14.25
2022-10-16T22:21:42.550Z,14.23
2022-10-16T22:24:09.378Z,14.35
2022-10-16T22:26:36.258Z,14.27
2022-10-16T22:29:02.900Z,14.27
2022-10-16T22:31:29.346Z,14.24
2022-10-16T22:34:00.163Z,14.24
2022-10-16T22:36:27.337Z,14.15
2022-10-16T22:38:54.457Z,14.08
2022-10-16T22:41:21.421Z,14.04
2022-10-16T22:43:48.799Z,13.96
2022-10-16T22:46:23.127Z,13.97
2022-10-16T22:48:49.708Z,13.98
2022-10-16T22:51:17.210Z,14.01
2022-10-16T22:53:45.123Z,13.99
2022-10-16T22:56:12.133Z,14.01
2022-10-16T22:58:38.633Z,13.87
2022-10-16T23:01:18.726Z,13.84
2022-10-16T23:03:45.407Z,13.85
2022-10-16T23:06:11.971Z,13.78
2022-10-16T23:08:38.501Z,13.74
2022-10-16T23:11:10.117Z,13.69
2022-10-16T23:13:38.040Z,13.68
2022-10-16T23:16:06.277Z,13.85
2022-10-16T23:18:34.525Z,13.77
2022-10-16T23:21:05.521Z,13.86
2022-10-16T23:23:32.339Z,13.80
2022-10-16T23:25:58.766Z,13.78
2022-10-16T23:28:25.352Z,13.74
2022-10-16T23:30:51.832Z,13.70
2022-10-16T23:33:18.583Z,13.77
2022-10-16T23:35:45.093Z,13.82
2022-10-16T23:38:11.723Z,13.78
2022-10-16T23:40:38.270Z,13.65
2022-10-16T23:43:04.763Z,13.68
2022-10-16T23:45:32.128Z,13.57
2022-10-16T23:47:58.539Z,13.54
2022-10-16T23:50:25.025Z,13.50
2022-10-16T23:52:51.557Z,13.40
2022-10-16T23:55:18.027Z,13.34
2022-10-16T23:57:44.529Z,13.26
